createdAt,value
2017-12-20T00:00:46.370Z,4
2017-12-20T00:01:48.844Z,4
2017-12-20T00:02:51.347Z,4
2017-12-20T00:03:53.845Z,4
2017-12-20T00:04:56.651Z,4
2017-12-20T00:05:59.224Z,4
2017-12-20T00:07:01.652Z,4
2017-12-20T00:08:04.155Z,3.9
2017-12-20T00:09:06.647Z,4
2017-12-20T00:10:09.139Z,4
2017-12-20T00:11:11.646Z,3.9
2017-12-20T00:12:14.128Z,3.9
2017-12-20T00:13:16.622Z,3.9
2017-12-20T00:14:19.117Z,3.9
2017-12-20T00:15:21.601Z,3.9
2017-12-20T00:16:24.095Z,3.9
2017-12-20T00:17:26.590Z,3.9
2017-12-20T00:18:29.371Z,3.9
2017-12-20T00:19:31.875Z,3.9
2017-12-20T00:20:34.364Z,3.9
2017-12-20T00:21:36.854Z,3.9
2017-12-20T00:22:39.352Z,3.8
2017-12-20T00:23:41.836Z,3.8
2017-12-20T00:24:44.322Z,3.9
2017-12-20T00:25:46.820Z,3.9
2017-12-20T00:26:49.303Z,3.9
2017-12-20T00:27:51.799Z,3.9
2017-12-20T00:28:54.292Z,3.8
2017-12-20T00:29:56.782Z,3.8
2017-12-20T00:30:59.276Z,3.9
2017-12-20T00:32:01.767Z,3.9
2017-12-20T00:33:04.542Z,3.9
2017-12-20T00:34:07.329Z,3.9
2017-12-20T00:35:10.148Z,3.9
2017-12-20T00:36:12.633Z,3.9
2017-12-20T00:37:15.128Z,3.9
2017-12-20T00:38:17.622Z,3.9
2017-12-20T00:39:20.111Z,3.9
2017-12-20T00:40:22.604Z,3.9
2017-12-20T00:41:25.096Z,3.8
2017-12-20T00:42:27.583Z,3.8
2017-12-20T00:43:30.096Z,3.8
2017-12-20T00:44:32.579Z,3.9
2017-12-20T00:45:35.079Z,3.8
2017-12-20T00:46:37.570Z,3.8
2017-12-20T00:47:40.071Z,3.8
2017-12-20T00:48:42.567Z,3.8
2017-12-20T00:49:45.054Z,3.8
2017-12-20T00:50:47.538Z,3.8
2017-12-20T00:51:50.054Z,3.8
2017-12-20T00:52:52.848Z,3.8
2017-12-20T00:53:55.337Z,3.8
2017-12-20T00:54:57.835Z,3.8
2017-12-20T00:56:00.616Z,3.8
2017-12-20T00:57:03.399Z,3.7
2017-12-20T00:58:06.193Z,3.7
2017-12-20T00:59:08.962Z,3.7
2017-12-20T01:00:11.750Z,3.7
2017-12-20T01:01:14.525Z,3.7
2017-12-20T01:02:17.023Z,3.7
2017-12-20T01:03:19.509Z,3.7
2017-12-20T01:04:21.999Z,3.7
2017-12-20T01:05:24.493Z,3.8
2017-12-20T01:06:26.985Z,3.7
2017-12-20T01:07:29.476Z,3.7
2017-12-20T01:08:31.980Z,3.7
2017-12-20T01:09:35.058Z,3.7
2017-12-20T01:10:37.537Z,3.7
2017-12-20T01:11:40.029Z,3.7
2017-12-20T01:12:42.526Z,3.7
2017-12-20T01:13:45.014Z,3.7
2017-12-20T01:14:47.504Z,3.7
2017-12-20T01:15:49.996Z,3.7
2017-12-20T01:16:52.486Z,3.7
2017-12-20T01:17:54.997Z,3.7
2017-12-20T01:18:57.485Z,3.7
2017-12-20T01:19:59.964Z,3.7
2017-12-20T01:21:02.752Z,3.7
2017-12-20T01:22:05.241Z,3.7
2017-12-20T01:23:07.746Z,3.7
2017-12-20T01:24:10.249Z,3.7
2017-12-20T01:25:12.723Z,3.7
2017-12-20T01:26:15.222Z,3.7
2017-12-20T01:27:17.719Z,3.7
2017-12-20T01:28:20.203Z,3.7
2017-12-20T01:29:22.695Z,3.7
2017-12-20T01:30:25.182Z,3.7
2017-12-20T01:31:27.664Z,3.7
2017-12-20T01:32:30.170Z,3.7
2017-12-20T01:33:32.659Z,3.7
2017-12-20T01:34:35.138Z,3.7
2017-12-20T01:35:37.635Z,3.7
2017-12-20T01:36:40.427Z,3.7
2017-12-20T01:37:42.918Z,3.7
2017-12-20T01:38:45.410Z,3.7
2017-12-20T01:39:47.890Z,3.7
2017-12-20T01:40:50.378Z,3.7
2017-12-20T01:41:53.170Z,3.7
2017-12-20T01:42:55.963Z,3.7
2017-12-20T01:43:58.433Z,3.7
2017-12-20T01:45:00.928Z,3.7
2017-12-20T01:46:03.428Z,3.7
2017-12-20T01:47:05.933Z,3.7
2017-12-20T01:48:08.422Z,3.7
2017-12-20T01:49:10.925Z,3.7
2017-12-20T01:50:13.395Z,3.7
2017-12-20T01:51:15.899Z,3.7
2017-12-20T01:52:18.389Z,3.7
2017-12-20T01:53:20.879Z,3.7
2017-12-20T01:54:23.417Z,3.7
2017-12-20T01:55:25.856Z,3.7
2017-12-20T01:56:28.352Z,3.7
2017-12-20T01:57:30.848Z,3.8
2017-12-20T01:58:33.611Z,3.8
2017-12-20T01:59:36.392Z,3.8
2017-12-20T02:00:38.893Z,3.7
2017-12-20T02:01:41.700Z,3.7
2017-12-20T02:02:44.189Z,3.7
2017-12-20T02:03:46.685Z,3.7
2017-12-20T02:04:49.178Z,3.7
2017-12-20T02:05:51.659Z,3.7
2017-12-20T02:06:54.148Z,3.7
2017-12-20T02:07:56.657Z,3.7
2017-12-20T02:08:59.428Z,3.7
2017-12-20T02:10:01.919Z,3.7
2017-12-20T02:11:04.417Z,3.7
2017-12-20T02:12:06.915Z,3.7
2017-12-20T02:13:09.402Z,3.7
2017-12-20T02:14:11.900Z,3.7
2017-12-20T02:15:14.381Z,3.7
2017-12-20T02:16:16.878Z,3.7
2017-12-20T02:17:19.662Z,3.7
2017-12-20T02:18:22.464Z,3.7
2017-12-20T02:19:24.946Z,3.7
2017-12-20T02:20:27.437Z,3.7
2017-12-20T02:21:30.213Z,3.7
2017-12-20T02:22:32.722Z,3.7
2017-12-20T02:23:35.204Z,3.7
2017-12-20T02:24:37.691Z,3.6
2017-12-20T02:25:40.504Z,3.7
2017-12-20T02:26:42.995Z,3.7
2017-12-20T02:27:45.487Z,3.7
2017-12-20T02:28:48.274Z,3.7
2017-12-20T02:29:50.754Z,3.7
2017-12-20T02:30:53.256Z,3.7
2017-12-20T02:31:56.042Z,3.7
2017-12-20T02:32:58.532Z,3.7
2017-12-20T02:34:01.016Z,3.6
2017-12-20T02:35:03.818Z,3.6
2017-12-20T02:36:06.322Z,3.7
2017-12-20T02:37:08.798Z,3.7
2017-12-20T02:38:11.289Z,3.7
2017-12-20T02:39:14.117Z,3.7
2017-12-20T02:40:16.603Z,3.7
2017-12-20T02:41:19.426Z,3.7
2017-12-20T02:42:21.912Z,3.6
2017-12-20T02:43:24.404Z,3.6
2017-12-20T02:44:26.892Z,3.7
2017-12-20T02:45:29.381Z,3.7
2017-12-20T02:46:31.860Z,3.6
2017-12-20T02:47:34.418Z,3.6
2017-12-20T02:48:36.851Z,3.7
2017-12-20T02:49:39.327Z,3.7
2017-12-20T02:50:41.833Z,3.6
2017-12-20T02:51:44.318Z,3.7
2017-12-20T02:52:46.804Z,3.7
2017-12-20T02:53:49.594Z,3.7
2017-12-20T02:54:52.089Z,3.6
2017-12-20T02:55:54.581Z,3.6
2017-12-20T02:56:57.080Z,3.6
2017-12-20T02:57:59.851Z,3.6
2017-12-20T02:59:02.343Z,3.6
2017-12-20T03:00:04.847Z,3.6
2017-12-20T03:01:07.333Z,3.6
2017-12-20T03:02:09.815Z,3.6
2017-12-20T03:03:12.618Z,3.6
2017-12-20T03:04:15.110Z,3.6
2017-12-20T03:05:17.591Z,3.6
2017-12-20T03:06:20.081Z,3.6
2017-12-20T03:07:22.869Z,3.6
2017-12-20T03:08:25.366Z,3.6
2017-12-20T03:09:27.858Z,3.6
2017-12-20T03:10:30.354Z,3.6
2017-12-20T03:11:32.837Z,3.6
2017-12-20T03:12:35.346Z,3.6
2017-12-20T03:13:37.833Z,3.6
2017-12-20T03:14:40.311Z,3.6
2017-12-20T03:15:42.804Z,3.6
2017-12-20T03:16:45.291Z,3.6
2017-12-20T03:17:47.785Z,3.6
2017-12-20T03:18:50.276Z,3.6
2017-12-20T03:19:52.772Z,3.6
2017-12-20T03:20:55.258Z,3.6
2017-12-20T03:21:57.758Z,3.6
2017-12-20T03:23:00.243Z,3.6
2017-12-20T03:24:02.735Z,3.6
2017-12-20T03:25:05.223Z,3.6
2017-12-20T03:26:07.717Z,3.6
2017-12-20T03:27:10.515Z,3.6
2017-12-20T03:28:13.009Z,3.6
2017-12-20T03:29:15.780Z,3.6
2017-12-20T03:30:18.278Z,3.6
2017-12-20T03:31:21.066Z,3.6
2017-12-20T03:32:23.560Z,3.6
2017-12-20T03:33:26.335Z,3.6
2017-12-20T03:34:29.123Z,3.6
2017-12-20T03:35:31.915Z,3.6
2017-12-20T03:36:34.405Z,3.6
2017-12-20T03:37:37.211Z,3.6
2017-12-20T03:38:39.717Z,3.6
2017-12-20T03:39:42.206Z,3.6
2017-12-20T03:40:44.691Z,3.6
2017-12-20T03:41:47.181Z,3.6
2017-12-20T03:42:49.664Z,3.6
2017-12-20T03:43:52.149Z,3.6
2017-12-20T03:44:54.650Z,3.5
2017-12-20T03:45:57.130Z,3.5
2017-12-20T03:46:59.613Z,3.6
2017-12-20T03:48:02.413Z,3.5
2017-12-20T03:49:04.889Z,3.5
2017-12-20T03:50:07.393Z,3.6
2017-12-20T03:51:09.878Z,3.6
2017-12-20T03:52:12.371Z,3.6
2017-12-20T03:53:14.860Z,3.5
2017-12-20T03:54:17.358Z,3.5
2017-12-20T03:55:19.839Z,3.6
2017-12-20T03:56:22.339Z,3.6
2017-12-20T03:57:25.107Z,3.6
2017-12-20T03:58:27.605Z,3.5
2017-12-20T03:59:30.102Z,3.5
2017-12-20T04:00:32.592Z,3.6
2017-12-20T04:01:35.078Z,3.5
2017-12-20T04:02:37.584Z,3.6
2017-12-20T04:03:40.073Z,3.6
2017-12-20T04:04:42.568Z,3.6
2017-12-20T04:05:45.054Z,3.5
2017-12-20T04:06:47.836Z,3.5
2017-12-20T04:07:50.327Z,3.5
2017-12-20T04:08:52.816Z,3.5
2017-12-20T04:09:55.314Z,3.5
2017-12-20T04:10:57.807Z,3.5
2017-12-20T04:12:00.823Z,3.5
2017-12-20T04:13:03.914Z,3.5
2017-12-20T04:14:06.404Z,3.5
2017-12-20T04:15:08.896Z,3.5
2017-12-20T04:16:11.383Z,3.5
2017-12-20T04:17:14.167Z,3.5
2017-12-20T04:18:16.975Z,3.6
2017-12-20T04:19:19.465Z,3.5
2017-12-20T04:20:21.951Z,3.5
2017-12-20T04:21:24.739Z,3.5
2017-12-20T04:22:27.226Z,3.6
2017-12-20T04:23:29.703Z,3.6
2017-12-20T04:24:32.196Z,3.6
2017-12-20T04:25:34.689Z,3.6
2017-12-20T04:26:37.182Z,3.6
2017-12-20T04:27:39.682Z,3.7
2017-12-20T04:28:42.169Z,3.6
2017-12-20T04:29:44.667Z,3.6
2017-12-20T04:30:47.170Z,3.6
2017-12-20T04:31:49.664Z,3.6
2017-12-20T04:32:52.154Z,3.6
2017-12-20T04:33:54.646Z,3.5
2017-12-20T04:34:57.449Z,3.5
2017-12-20T04:35:59.954Z,3.5
2017-12-20T04:37:02.436Z,3.5
2017-12-20T04:38:04.924Z,3.6
2017-12-20T04:39:07.419Z,3.6
2017-12-20T04:40:09.899Z,3.6
2017-12-20T04:41:12.386Z,3.6
2017-12-20T04:42:14.876Z,3.6
2017-12-20T04:43:17.645Z,3.6
2017-12-20T04:44:20.147Z,3.6
2017-12-20T04:45:22.630Z,3.5
2017-12-20T04:46:25.132Z,3.5
2017-12-20T04:47:27.627Z,3.5
2017-12-20T04:48:30.125Z,3.6
2017-12-20T04:49:32.611Z,3.6
2017-12-20T04:50:35.103Z,3.6
2017-12-20T04:51:37.595Z,3.6
2017-12-20T04:52:40.087Z,3.6
2017-12-20T04:53:42.875Z,3.6
2017-12-20T04:54:45.380Z,3.6
2017-12-20T04:55:47.860Z,3.5
2017-12-20T04:56:50.366Z,3.6
2017-12-20T04:57:52.859Z,3.6
2017-12-20T04:58:55.351Z,3.6
2017-12-20T04:59:57.841Z,3.6
2017-12-20T05:01:00.338Z,3.6
2017-12-20T05:02:03.114Z,3.6
2017-12-20T05:03:05.609Z,3.6
2017-12-20T05:04:08.106Z,3.6
2017-12-20T05:05:10.669Z,3.6
2017-12-20T05:06:13.092Z,3.6
2017-12-20T05:07:15.588Z,3.6
2017-12-20T05:08:18.067Z,3.6
2017-12-20T05:09:20.556Z,3.6
2017-12-20T05:10:23.059Z,3.6
2017-12-20T05:11:25.540Z,3.6
2017-12-20T05:12:28.040Z,3.6
2017-12-20T05:13:30.821Z,3.6
2017-12-20T05:14:33.312Z,3.6
2017-12-20T05:15:35.798Z,3.6
2017-12-20T05:16:38.292Z,3.6
2017-12-20T05:17:40.778Z,3.6
2017-12-20T05:18:43.279Z,3.6
2017-12-20T05:19:45.770Z,3.5
2017-12-20T05:20:48.251Z,3.5
2017-12-20T05:21:50.743Z,3.6
2017-12-20T05:22:53.251Z,3.6
2017-12-20T05:23:55.739Z,3.6
2017-12-20T05:24:58.231Z,3.6
2017-12-20T05:26:01.019Z,3.6
2017-12-20T05:27:03.508Z,3.6
2017-12-20T05:28:06.020Z,3.6
2017-12-20T05:29:08.511Z,3.6
2017-12-20T05:30:10.990Z,3.6
2017-12-20T05:31:13.479Z,3.6
2017-12-20T05:32:15.971Z,3.6
2017-12-20T05:33:18.464Z,3.6
2017-12-20T05:34:20.943Z,3.6
2017-12-20T05:35:23.449Z,3.6
2017-12-20T05:36:26.234Z,3.6
2017-12-20T05:37:28.723Z,3.6
2017-12-20T05:38:31.219Z,3.6
2017-12-20T05:39:33.707Z,3.6
2017-12-20T05:40:36.793Z,3.6
2017-12-20T05:41:39.290Z,3.6
2017-12-20T05:42:41.778Z,3.6
2017-12-20T05:43:44.272Z,3.6
2017-12-20T05:44:46.776Z,3.6
2017-12-20T05:45:49.261Z,3.6
2017-12-20T05:46:51.746Z,3.6
2017-12-20T05:47:54.240Z,3.6
2017-12-20T05:48:56.729Z,3.6
2017-12-20T05:49:59.532Z,3.6
2017-12-20T05:51:02.029Z,3.6
2017-12-20T05:52:04.516Z,3.6
2017-12-20T05:53:07.322Z,3.6
2017-12-20T05:54:10.118Z,3.6
2017-12-20T05:55:12.608Z,3.6
2017-12-20T05:56:15.099Z,3.6
2017-12-20T05:57:17.885Z,3.6
2017-12-20T05:58:20.372Z,3.6
2017-12-20T05:59:22.861Z,3.6
2017-12-20T06:00:25.354Z,3.6
2017-12-20T06:01:27.824Z,3.6
2017-12-20T06:02:30.327Z,3.7
2017-12-20T06:03:33.107Z,3.6
2017-12-20T06:04:35.603Z,3.7
2017-12-20T06:05:38.095Z,3.7
2017-12-20T06:06:40.597Z,3.7
2017-12-20T06:07:43.092Z,3.7
2017-12-20T06:08:45.567Z,3.7
2017-12-20T06:09:48.363Z,3.7
2017-12-20T06:10:50.852Z,3.7
2017-12-20T06:11:53.627Z,3.7
2017-12-20T06:12:56.883Z,3.7
2017-12-20T06:13:59.382Z,3.7
2017-12-20T06:15:01.871Z,3.7
2017-12-20T06:16:04.373Z,3.7
2017-12-20T06:17:06.860Z,3.8
2017-12-20T06:18:09.366Z,3.8
2017-12-20T06:19:11.849Z,3.8
2017-12-20T06:20:14.337Z,3.8
2017-12-20T06:21:22.304Z,3.8
2017-12-20T06:22:34.205Z,3.8
2017-12-20T06:23:43.868Z,3.8
2017-12-20T06:24:51.400Z,3.8
2017-12-20T06:26:05.532Z,3.8
2017-12-20T06:27:16.978Z,3.8
2017-12-20T06:28:33.093Z,3.8
2017-12-20T06:30:00.517Z,3.9
2017-12-20T06:31:14.934Z,3.8
2017-12-20T06:32:19.093Z,3.9
2017-12-20T06:33:35.559Z,3.9
2017-12-20T06:34:46.251Z,3.9
2017-12-20T06:35:51.758Z,3.9
2017-12-20T06:36:56.284Z,3.9
2017-12-20T06:38:01.746Z,4
2017-12-20T06:39:14.933Z,3.9
2017-12-20T06:40:23.605Z,3.9
2017-12-20T06:41:28.648Z,3.9
2017-12-20T06:42:31.820Z,4
2017-12-20T06:43:36.071Z,3.9
2017-12-20T06:44:43.762Z,4
2017-12-20T06:46:06.977Z,4
2017-12-20T06:47:17.393Z,4
2017-12-20T06:48:22.342Z,4
2017-12-20T06:49:33.880Z,4
2017-12-20T06:50:40.259Z,4
2017-12-20T06:51:44.230Z,4
2017-12-20T06:52:49.094Z,4
2017-12-20T06:53:53.939Z,4
2017-12-20T06:54:58.548Z,4
2017-12-20T06:56:02.000Z,4
2017-12-20T06:57:04.845Z,4
2017-12-20T06:58:07.371Z,4.1
2017-12-20T06:59:09.859Z,4
2017-12-20T07:00:12.368Z,4
2017-12-20T07:01:15.159Z,4
2017-12-20T07:02:17.632Z,4.1
2017-12-20T07:03:20.133Z,4
2017-12-20T07:04:22.625Z,4.1
2017-12-20T07:05:25.118Z,4.1
2017-12-20T07:06:31.774Z,4.1
2017-12-20T07:07:39.815Z,4.1
2017-12-20T07:08:44.098Z,4.1
2017-12-20T07:09:49.585Z,4.1
2017-12-20T07:10:56.517Z,4.1
2017-12-20T07:12:01.252Z,4.1
2017-12-20T07:13:04.934Z,4.1
2017-12-20T07:14:08.966Z,4.1
2017-12-20T07:15:13.041Z,4.1
2017-12-20T07:16:16.979Z,4.1
2017-12-20T07:17:20.527Z,4.1
2017-12-20T07:18:23.459Z,4.1
2017-12-20T07:19:33.086Z,4.1
2017-12-20T07:20:46.408Z,4.1
2017-12-20T07:22:05.559Z,4.1
2017-12-20T07:23:10.699Z,4.1
2017-12-20T07:24:13.837Z,4.1
2017-12-20T07:25:22.203Z,4.1
2017-12-20T07:26:31.797Z,4.1
2017-12-20T07:27:36.268Z,4.1
2017-12-20T07:28:42.153Z,4.2
2017-12-20T07:29:47.630Z,4.3
2017-12-20T07:30:55.452Z,4.3
2017-12-20T07:32:00.622Z,4.3
2017-12-20T07:33:10.739Z,4.3
2017-12-20T07:34:35.375Z,4.3
2017-12-20T07:35:48.980Z,4.3
2017-12-20T07:36:54.464Z,4.3
2017-12-20T07:37:58.299Z,4.2
2017-12-20T07:39:02.641Z,4.2
2017-12-20T07:40:06.486Z,4.2
2017-12-20T07:41:11.813Z,4.2
2017-12-20T07:42:16.739Z,4.2
2017-12-20T07:43:21.010Z,4.2
2017-12-20T07:44:24.803Z,4.2
2017-12-20T07:45:28.289Z,4.2
2017-12-20T07:46:33.262Z,4.2
2017-12-20T07:47:38.904Z,4.2
2017-12-20T07:48:44.600Z,4.2
2017-12-20T07:49:48.711Z,4.3
2017-12-20T07:50:54.901Z,4.3
2017-12-20T07:51:59.505Z,4.3
2017-12-20T07:53:04.992Z,4.3
2017-12-20T07:54:09.838Z,4.3
2017-12-20T07:55:14.091Z,4.3
2017-12-20T07:56:17.436Z,4.3
2017-12-20T07:57:22.809Z,4.3
2017-12-20T07:58:27.103Z,4.3
2017-12-20T07:59:30.528Z,4.3
2017-12-20T08:00:36.109Z,4.3
2017-12-20T08:01:41.737Z,4.3
2017-12-20T08:02:46.460Z,4.3
2017-12-20T08:03:49.843Z,4.3
2017-12-20T08:04:52.328Z,4.3
2017-12-20T08:05:54.827Z,4.3
2017-12-20T08:06:57.324Z,4.3
2017-12-20T08:08:00.113Z,4.3
2017-12-20T08:09:02.905Z,4.3
2017-12-20T08:10:05.392Z,4.3
2017-12-20T08:11:07.895Z,4.3
2017-12-20T08:12:10.673Z,4.3
2017-12-20T08:13:13.165Z,4.4
2017-12-20T08:14:15.681Z,4.4
2017-12-20T08:15:18.166Z,4.4
2017-12-20T08:16:20.665Z,4.4
2017-12-20T08:17:23.155Z,4.4
2017-12-20T08:18:25.653Z,4.4
2017-12-20T08:19:28.157Z,4.4
2017-12-20T08:20:30.659Z,4.4
2017-12-20T08:21:33.437Z,4.4
2017-12-20T08:22:35.946Z,4.4
2017-12-20T08:23:38.429Z,4.4
2017-12-20T08:24:41.487Z,4.5
2017-12-20T08:25:43.986Z,4.6
2017-12-20T08:26:46.473Z,4.6
2017-12-20T08:27:48.969Z,4.7
2017-12-20T08:28:51.481Z,4.7
2017-12-20T08:29:53.959Z,4.7
2017-12-20T08:30:56.455Z,4.8
2017-12-20T08:31:58.957Z,4.7
2017-12-20T08:33:01.459Z,4.7
2017-12-20T08:34:04.260Z,4.7
2017-12-20T08:35:06.764Z,4.7
2017-12-20T08:36:09.533Z,4.6
2017-12-20T08:37:12.044Z,4.6
2017-12-20T08:38:14.529Z,4.7
2017-12-20T08:39:17.022Z,4.7
2017-12-20T08:40:19.536Z,4.7
2017-12-20T08:41:22.318Z,4.7
2017-12-20T08:42:24.809Z,4.7
2017-12-20T08:43:27.295Z,4.7
2017-12-20T08:44:29.788Z,4.7
2017-12-20T08:45:32.297Z,4.7
2017-12-20T08:46:34.790Z,4.7
2017-12-20T08:47:37.263Z,4.7
2017-12-20T08:48:40.056Z,4.8
2017-12-20T08:49:42.548Z,4.8
2017-12-20T08:50:45.352Z,4.8
2017-12-20T08:51:47.851Z,4.8
2017-12-20T08:52:50.329Z,4.8
2017-12-20T08:53:52.826Z,4.8
2017-12-20T08:54:55.626Z,4.8
2017-12-20T08:55:58.407Z,4.8
2017-12-20T08:57:00.906Z,4.9
2017-12-20T08:58:03.401Z,4.8
2017-12-20T08:59:05.894Z,4.9
2017-12-20T09:00:08.399Z,4.8
2017-12-20T09:01:10.891Z,4.9
2017-12-20T09:02:13.376Z,4.9
2017-12-20T09:03:15.880Z,4.9
2017-12-20T09:04:18.373Z,4.9
2017-12-20T09:05:21.187Z,4.9
2017-12-20T09:06:23.969Z,4.9
2017-12-20T09:07:26.464Z,4.9
2017-12-20T09:08:28.961Z,5
2017-12-20T09:09:31.448Z,5
2017-12-20T09:10:34.280Z,4.9
2017-12-20T09:11:36.786Z,5
2017-12-20T09:12:39.275Z,5
2017-12-20T09:13:41.769Z,5
2017-12-20T09:14:44.261Z,5
2017-12-20T09:15:47.054Z,5.1
2017-12-20T09:16:49.852Z,5.1
2017-12-20T09:17:52.647Z,5.1
2017-12-20T09:18:55.133Z,5.2
2017-12-20T09:19:57.631Z,5.1
2017-12-20T09:21:00.131Z,5.1
2017-12-20T09:22:02.629Z,5.1
2017-12-20T09:23:05.410Z,5.1
2017-12-20T09:24:07.907Z,5.2
2017-12-20T09:25:10.983Z,5.2
2017-12-20T09:26:13.497Z,5.2
2017-12-20T09:27:15.982Z,5.1
2017-12-20T09:28:18.758Z,5.2
2017-12-20T09:29:21.255Z,5.2
2017-12-20T09:30:24.327Z,5.2
2017-12-20T09:31:26.823Z,5.1
2017-12-20T09:32:29.320Z,5.1
2017-12-20T09:33:31.801Z,5.2
2017-12-20T09:34:34.302Z,5.2
2017-12-20T09:35:36.807Z,5.2
2017-12-20T09:36:39.288Z,5.2
2017-12-20T09:37:41.782Z,5.2
2017-12-20T09:38:44.274Z,5.2
2017-12-20T09:39:46.767Z,5.3
2017-12-20T09:40:49.266Z,5.3
2017-12-20T09:41:52.058Z,5.3
2017-12-20T09:42:54.555Z,5.3
2017-12-20T09:43:57.050Z,5.3
2017-12-20T09:44:59.552Z,5.3
2017-12-20T09:46:02.348Z,5.3
2017-12-20T09:47:04.839Z,5.3
2017-12-20T09:48:07.340Z,5.3
2017-12-20T09:49:09.835Z,5.3
2017-12-20T09:50:12.338Z,5.4
2017-12-20T09:51:14.832Z,5.4
2017-12-20T09:52:17.331Z,5.5
2017-12-20T09:53:20.116Z,5.5
2017-12-20T09:54:22.903Z,5.4
2017-12-20T09:55:25.683Z,5.5
2017-12-20T09:56:28.471Z,5.6
2017-12-20T09:57:30.970Z,5.6
2017-12-20T09:58:33.461Z,5.7
2017-12-20T09:59:35.962Z,5.8
2017-12-20T10:00:38.468Z,5.8
2017-12-20T10:01:41.243Z,5.6
2017-12-20T10:02:43.743Z,5.6
2017-12-20T10:03:46.240Z,5.6
2017-12-20T10:04:48.736Z,5.5
2017-12-20T10:05:51.515Z,5.6
2017-12-20T10:06:54.008Z,5.5
2017-12-20T10:07:56.502Z,5.6
2017-12-20T10:08:59.005Z,5.5
2017-12-20T10:10:01.495Z,5.5
2017-12-20T10:11:04.004Z,5.6
2017-12-20T10:14:37.814Z,5.3
2017-12-20T10:15:37.650Z,5.3
2017-12-20T10:16:40.146Z,5.6
2017-12-20T10:17:42.634Z,5.6
2017-12-20T10:18:45.136Z,5.6
2017-12-20T10:19:47.613Z,5.6
2017-12-20T10:20:50.112Z,5.7
2017-12-20T10:21:52.625Z,5.7
2017-12-20T10:22:55.117Z,5.7
2017-12-20T10:23:57.617Z,5.6
2017-12-20T10:25:00.107Z,5.6
2017-12-20T10:26:02.597Z,5.6
2017-12-20T10:27:05.103Z,5.6
2017-12-20T10:28:07.594Z,5.6
2017-12-20T10:29:10.076Z,5.6
2017-12-20T10:30:12.578Z,5.6
2017-12-20T10:31:15.069Z,5.6
2017-12-20T10:32:17.596Z,5.6
2017-12-20T10:33:20.400Z,5.6
2017-12-20T10:34:22.890Z,5.7
2017-12-20T10:35:25.394Z,5.7
2017-12-20T10:36:27.888Z,5.6
2017-12-20T10:37:30.379Z,5.7
2017-12-20T10:38:32.884Z,5.7
2017-12-20T10:39:35.370Z,5.7
2017-12-20T10:40:37.869Z,5.6
2017-12-20T10:41:40.356Z,5.7
2017-12-20T10:42:43.131Z,5.6
2017-12-20T10:43:45.632Z,5.7
2017-12-20T10:44:48.129Z,5.7
2017-12-20T10:45:51.206Z,5.7
2017-12-20T10:46:53.698Z,5.6
2017-12-20T10:47:56.188Z,5.7
2017-12-20T10:48:58.686Z,5.6
2017-12-20T10:50:01.181Z,5.7
2017-12-20T10:51:03.678Z,5.6
2017-12-20T10:52:06.182Z,5.6
2017-12-20T10:53:08.962Z,5.7
2017-12-20T10:54:11.454Z,5.7
2017-12-20T10:55:14.255Z,5.7
2017-12-20T10:56:16.743Z,5.7
2017-12-20T10:57:19.542Z,5.7
2017-12-20T10:58:22.327Z,5.7
2017-12-20T10:59:25.110Z,5.7
2017-12-20T11:00:27.903Z,5.7
2017-12-20T11:01:31.002Z,5.7
2017-12-20T11:02:33.492Z,5.8
2017-12-20T11:03:36.278Z,5.7
2017-12-20T11:04:38.808Z,5.8
2017-12-20T11:05:41.589Z,5.8
2017-12-20T11:06:44.081Z,5.7
2017-12-20T11:07:46.583Z,5.8
2017-12-20T11:08:49.080Z,5.8
2017-12-20T11:09:51.574Z,5.7
2017-12-20T11:10:54.075Z,5.8
2017-12-20T11:11:56.551Z,5.8
2017-12-20T11:12:59.050Z,5.8
2017-12-20T11:14:01.560Z,5.8
2017-12-20T11:15:04.050Z,5.8
2017-12-20T11:16:06.540Z,5.8
2017-12-20T11:17:09.337Z,5.8
2017-12-20T11:18:11.839Z,5.8
2017-12-20T11:19:14.903Z,5.9
2017-12-20T11:20:17.403Z,5.9
2017-12-20T11:21:19.908Z,5.9
2017-12-20T11:22:22.682Z,5.9
2017-12-20T11:23:25.185Z,5.9
2017-12-20T11:24:27.672Z,5.9
2017-12-20T11:25:30.165Z,5.9
2017-12-20T11:26:32.676Z,5.9
2017-12-20T11:27:35.162Z,5.9
2017-12-20T11:28:37.668Z,5.9
2017-12-20T11:29:40.170Z,6
2017-12-20T11:30:42.656Z,5.9
2017-12-20T11:31:45.731Z,5.9
2017-12-20T11:32:48.233Z,5.9
2017-12-20T11:33:50.727Z,5.9
2017-12-20T11:34:53.541Z,6
2017-12-20T11:35:56.031Z,6
2017-12-20T11:36:58.515Z,6
2017-12-20T11:38:01.032Z,6
2017-12-20T11:39:03.526Z,6
2017-12-20T11:40:06.012Z,6
2017-12-20T11:41:08.510Z,6.1
2017-12-20T11:42:11.289Z,6
2017-12-20T11:43:13.786Z,6.1
2017-12-20T11:44:16.277Z,6
2017-12-20T11:45:18.783Z,6
2017-12-20T11:46:21.281Z,6
2017-12-20T11:47:23.777Z,6.1
2017-12-20T11:48:26.269Z,6.1
2017-12-20T11:49:29.054Z,6.1
2017-12-20T11:50:31.542Z,6.1
2017-12-20T11:51:34.040Z,6
2017-12-20T11:52:36.831Z,6.1
2017-12-20T11:53:39.337Z,6.1
2017-12-20T11:54:42.159Z,6.1
2017-12-20T11:55:44.660Z,6
2017-12-20T11:56:47.151Z,6.1
2017-12-20T11:57:49.653Z,6.1
2017-12-20T11:58:52.158Z,6.1
2017-12-20T11:59:54.947Z,6.2
2017-12-20T12:00:57.449Z,6.1
2017-12-20T12:01:59.932Z,6.1
2017-12-20T12:03:02.436Z,6.2
2017-12-20T12:04:04.931Z,6.1
2017-12-20T12:05:07.425Z,6.1
2017-12-20T12:06:09.920Z,6.2
2017-12-20T12:07:12.709Z,6.2
2017-12-20T12:08:15.199Z,6.2
2017-12-20T12:09:17.706Z,6.2
2017-12-20T12:10:20.196Z,6.2
2017-12-20T12:11:22.688Z,6.2
2017-12-20T12:12:25.179Z,6.2
2017-12-20T12:13:27.686Z,6.2
2017-12-20T12:14:30.186Z,6.2
2017-12-20T12:15:32.682Z,6.1
2017-12-20T12:16:35.177Z,6.2
2017-12-20T12:17:37.972Z,6.2
2017-12-20T12:18:40.454Z,6.2
2017-12-20T12:19:42.960Z,6.2
2017-12-20T12:20:45.458Z,6.3
2017-12-20T12:21:47.957Z,6.4
2017-12-20T12:22:50.459Z,6.3
2017-12-20T12:23:52.957Z,6.4
2017-12-20T12:24:55.451Z,6.4
2017-12-20T12:25:57.955Z,6.4
2017-12-20T12:27:00.440Z,6.4
2017-12-20T12:28:02.938Z,6.3
2017-12-20T12:29:05.437Z,6.3
2017-12-20T12:30:08.217Z,6.3
2017-12-20T12:31:10.720Z,6.3
2017-12-20T12:32:13.222Z,6.3
2017-12-20T12:33:15.706Z,6.3
2017-12-20T12:34:18.798Z,6.3
2017-12-20T12:35:21.290Z,6.3
2017-12-20T12:36:23.795Z,6.3
2017-12-20T12:37:26.581Z,6.3
2017-12-20T12:38:29.084Z,6.3
2017-12-20T12:39:31.578Z,6.4
2017-12-20T12:40:34.091Z,6.3
2017-12-20T12:41:36.882Z,6.3
2017-12-20T12:42:39.371Z,6.3
2017-12-20T12:43:41.860Z,6.3
2017-12-20T12:44:44.383Z,6.3
2017-12-20T12:45:47.171Z,6.3
2017-12-20T12:46:49.664Z,6.4
2017-12-20T12:47:52.155Z,6.3
2017-12-20T12:48:54.652Z,6.3
2017-12-20T12:49:57.151Z,6.3
2017-12-20T12:50:59.959Z,6.3
2017-12-20T12:52:02.444Z,6.3
2017-12-20T12:53:04.938Z,6.3
2017-12-20T12:54:07.446Z,6.3
2017-12-20T12:55:09.935Z,6.3
2017-12-20T12:56:12.427Z,6.4
2017-12-20T12:57:14.927Z,6.3
2017-12-20T12:58:17.416Z,6.3
2017-12-20T12:59:19.916Z,6.3
2017-12-20T13:00:22.409Z,6.3
2017-12-20T13:01:24.896Z,6.3
2017-12-20T13:02:27.391Z,6.3
2017-12-20T13:03:30.180Z,6.3
2017-12-20T13:04:32.960Z,6.3
2017-12-20T13:05:35.463Z,6.3
2017-12-20T13:06:37.934Z,6.3
2017-12-20T13:07:40.740Z,6.3
2017-12-20T13:08:43.247Z,6.3
2017-12-20T13:09:46.031Z,6.3
2017-12-20T13:10:48.523Z,6.3
2017-12-20T13:11:51.017Z,6.4
2017-12-20T13:12:53.513Z,6.4
2017-12-20T13:13:56.306Z,6.4
2017-12-20T13:14:58.796Z,6.4
2017-12-20T13:16:01.583Z,6.4
2017-12-20T13:17:04.090Z,6.5
2017-12-20T13:18:06.855Z,6.4
2017-12-20T13:19:09.357Z,6.5
2017-12-20T13:20:11.861Z,6.5
2017-12-20T13:21:14.355Z,6.5
2017-12-20T13:22:16.854Z,6.6
2017-12-20T13:23:19.351Z,6.6
2017-12-20T13:24:21.839Z,6.5
2017-12-20T13:25:24.347Z,6.5
2017-12-20T13:26:26.843Z,6.6
2017-12-20T13:27:29.325Z,6.6
2017-12-20T13:28:31.817Z,6.6
2017-12-20T13:29:34.313Z,6.4
2017-12-20T13:30:37.103Z,6.5
2017-12-20T13:31:39.602Z,6.6
2017-12-20T13:32:42.084Z,6.6
2017-12-20T13:33:44.579Z,6.6
2017-12-20T13:34:47.080Z,6.5
2017-12-20T13:35:49.586Z,6.6
2017-12-20T13:36:52.083Z,6.6
2017-12-20T13:37:54.587Z,6.5
2017-12-20T13:38:57.075Z,6.5
2017-12-20T13:39:59.591Z,6.5
2017-12-20T13:42:26.357Z,6.1
2017-12-20T13:43:28.852Z,6.4
2017-12-20T13:44:31.343Z,6.4
2017-12-20T13:45:33.843Z,6.5
2017-12-20T13:46:36.316Z,6.4
2017-12-20T13:47:38.814Z,6.4
2017-12-20T13:48:41.327Z,6.4
2017-12-20T13:49:43.813Z,6.5
2017-12-20T13:50:46.312Z,6.4
2017-12-20T13:51:48.809Z,6.4
2017-12-20T13:52:51.299Z,6.4
2017-12-20T13:53:53.807Z,6.3
2017-12-20T13:54:56.311Z,6.3
2017-12-20T13:55:58.798Z,6.3
2017-12-20T13:57:01.596Z,6.3
2017-12-20T13:58:04.088Z,6.3
2017-12-20T13:59:06.918Z,6.4
2017-12-20T14:00:10.031Z,6.4
2017-12-20T14:01:12.526Z,6.3
2017-12-20T14:02:15.019Z,6.3
2017-12-20T14:03:17.520Z,6.3
2017-12-20T14:04:20.010Z,6.3
2017-12-20T14:05:22.517Z,6.3
2017-12-20T14:06:25.001Z,6.3
2017-12-20T14:07:27.503Z,6.3
2017-12-20T14:08:29.990Z,6.3
2017-12-20T14:09:32.774Z,6.3
2017-12-20T14:10:35.277Z,6.3
2017-12-20T14:11:37.764Z,6.3
2017-12-20T14:12:40.266Z,6.3
2017-12-20T14:13:43.042Z,6.4
2017-12-20T14:14:45.536Z,6.4
2017-12-20T14:15:48.034Z,6.5
2017-12-20T14:16:50.523Z,6.4
2017-12-20T14:17:53.022Z,6.5
2017-12-20T14:18:55.520Z,6.5
2017-12-20T14:19:58.016Z,6.5
2017-12-20T14:21:00.508Z,6.4
2017-12-20T14:22:03.013Z,6.5
2017-12-20T14:23:05.504Z,6.4
2017-12-20T14:24:07.993Z,6.5
2017-12-20T14:25:10.490Z,6.5
2017-12-20T14:26:13.215Z,6.4
2017-12-20T14:27:15.716Z,6.4
2017-12-20T14:28:18.217Z,6.4
2017-12-20T14:29:21.286Z,6.4
2017-12-20T14:30:24.074Z,6.4
2017-12-20T14:31:26.583Z,6.5
2017-12-20T14:32:29.082Z,6.4
2017-12-20T14:33:31.573Z,6.4
2017-12-20T14:34:34.073Z,6.4
2017-12-20T14:35:36.570Z,6.3